Oakland, New Jersey
Current Conditions -  °F | °C
As of 5:53 PM on Tuesday 25 Nov 2014 (Local Time) from KCDW Reporting Station
Clear Clear  
Wind Chill: 49°   Ceiling: Unl
Heat Index: 49°   Visibility: 10mi
Dew Point: 28°   Wind: 0mph
Humidity: 44%   Direction: NA
Pressure: 30.04"   Gusts: NA
Location:  41.02°N, 74.24°W
Report Text: KCDW 252253Z AUTO 00000KT 10SM CLR 09/M02 A3004 RMK AO2 SLP177 T00941022 TSNO
Loading
Personal Weather Stations






























Interactive Weather Map New forecast layout! Learn more

10-Day Weather Forecast

Advertisements
Track Severe Weather on mobile